Map

Track Data

SID SEASON NUMBER BASIN SUBBASIN NAME ISO_TIME NATURE LAT LON WMO_WIND WMO_PRES WMO_AGENCY TRACK_TYPE DIST2LAND LANDFALL IFLAG USA_AGENCY USA_ATCF_ID USA_LAT USA_LON USA_RECORD USA_STATUS USA_WIND USA_PRES USA_SSHS USA_R34_NE USA_R34_SE USA_R34_SW USA_R34_NW USA_R50_NE USA_R50_SE USA_R50_SW USA_R50_NW USA_R64_NE USA_R64_SE USA_R64_SW USA_R64_NW USA_POCI USA_ROCI USA_RMW USA_EYE TOKYO_LAT TOKYO_LON TOKYO_GRADE TOKYO_WIND TOKYO_PRES TOKYO_R50_DIR TOKYO_R50_LONG TOKYO_R50_SHORT TOKYO_R30_DIR TOKYO_R30_LONG TOKYO_R30_SHORT TOKYO_LAND CMA_LAT CMA_LON CMA_CAT CMA_WIND CMA_PRES HKO_LAT HKO_LON HKO_CAT HKO_WIND HKO_PRES NEWDELHI_LAT NEWDELHI_LON NEWDELHI_GRADE NEWDELHI_WIND NEWDELHI_PRES NEWDELHI_CI NEWDELHI_DP NEWDELHI_POCI REUNION_LAT REUNION_LON REUNION_TYPE REUNION_WIND REUNION_PRES REUNION_TNUM REUNION_CI REUNION_RMW REUNION_R34_NE REUNION_R34_SE REUNION_R34_SW REUNION_R34_NW REUNION_R50_NE REUNION_R50_SE REUNION_R50_SW REUNION_R50_NW REUNION_R64_NE REUNION_R64_SE REUNION_R64_SW REUNION_R64_NW BOM_LAT BOM_LON BOM_TYPE BOM_WIND BOM_PRES BOM_TNUM BOM_CI BOM_RMW BOM_R34_NE BOM_R34_SE BOM_R34_SW BOM_R34_NW BOM_R50_NE BOM_R50_SE BOM_R50_SW BOM_R50_NW BOM_R64_NE BOM_R64_SE BOM_R64_SW BOM_R64_NW BOM_ROCI BOM_POCI BOM_EYE BOM_POS_METHOD BOM_PRES_METHOD NADI_LAT NADI_LON NADI_CAT NADI_WIND NADI_PRES WELLINGTON_LAT WELLINGTON_LON WELLINGTON_WIND WELLINGTON_PRES DS824_LAT DS824_LON DS824_STAGE DS824_WIND DS824_PRES TD9636_LAT TD9636_LON TD9636_STAGE TD9636_WIND TD9636_PRES TD9635_LAT TD9635_LON TD9635_WIND TD9635_PRES TD9635_ROCI NEUMANN_LAT NEUMANN_LON NEUMANN_CLASS NEUMANN_WIND NEUMANN_PRES MLC_LAT MLC_LON MLC_CLASS MLC_WIND MLC_PRES USA_GUST BOM_GUST BOM_GUST_PER REUNION_GUST REUNION_GUST_PER USA_SEAHGT USA_SEARAD_NE USA_SEARAD_SE USA_SEARAD_SW USA_SEARAD_NW STORM_SPEED STORM_DIR
1997216N20091 1997 62 NI BB NOT_NAMED 1997-08-04 06:00:00 NR 20.0000 91.0000 25 988 newdelhi main 165 35 ____O_________ -1 20.0000 91.0000 D 25 988 1.50000 4 36 328
1997216N20091 1997 62 NI BB NOT_NAMED 1997-08-04 09:00:00 NR 21.5000 90.0000 25 990 newdelhi main 35 33 ____O_________ -1 21.5000 90.0000 D 25 990 1.50000 4 17 306
1997216N20091 1997 62 NI BB NOT_NAMED 1997-08-04 12:00:00 NR 21.0000 89.5000 25 990 newdelhi main 78 63 ____O_________ -1 21.0000 89.5000 D 25 990 1.50000 4 6 235
1997216N20091 1997 62 NI BB NOT_NAMED 1997-08-04 15:00:00 NR 21.1305 89.4320 main 63 24 ____P_________ -1 21.1305 89.4320 D 25 990 4 5 2
1997216N20091 1997 62 NI BB NOT_NAMED 1997-08-04 18:00:00 NR 21.5000 89.5000 25 990 newdelhi main 24 24 ____O_________ -1 21.5000 89.5000 D 25 990 1.50000 4 3 4
1997216N20091 1997 62 NI BB NOT_NAMED 1997-08-04 21:00:00 NR 21.4310 89.4364 main 33 11 ____P_________ -1 21.4310 89.4364 D 25 989 5 270
1997216N20091 1997 62 NI BB NOT_NAMED 1997-08-05 00:00:00 NR 21.5000 89.0000 25 988 newdelhi main 11 0 ____O_________ -1 21.5000 89.0000 D 25 988 1.50000 15 293
1997216N20091 1997 62 NI BB NOT_NAMED 1997-08-05 03:00:00 NR 22.0000 88.0000 30 896 newdelhi main 0 0 ____O_________ -1 22.0000 88.0000 DD 30 896 2.00000 14 317
1997216N20091 1997 62 NI BB NOT_NAMED 1997-08-05 06:00:00 NR 22.5000 88.0000 newdelhi main 0 0 ____O_________ -1 22.5000 88.0000 DD 0.00000 5 2
1997216N20091 1997 62 NI BB NOT_NAMED 1997-08-05 09:00:00 NR 22.5000 88.0000 newdelhi main 0 0 ____O_________ -1 22.5000 88.0000 DD 0.00000 5 270
1997216N20091 1997 62 NI BB NOT_NAMED 1997-08-05 12:00:00 NR 22.5000 87.5000 newdelhi main 0 0 ____O_________ -1 22.5000 87.5000 DD 0.00000 16 277
1997216N20091 1997 62 NI BB NOT_NAMED 1997-08-05 15:00:00 NR 22.7020 86.3025 main 0 0 ____P_________ -1 22.7020 86.3025 DD 24 282
1997216N20091 1997 62 NI BB NOT_NAMED 1997-08-05 18:00:00 NR 23.0000 85.0000 newdelhi main 0 0 ____O_________ -1 23.0000 85.0000 DD 0.00000 19 288
1997216N20091 1997 62 NI BB NOT_NAMED 1997-08-05 21:00:00 NR 23.2998 84.3362 main 0 0 ____P_________ -1 23.2998 84.3362 DD 10 299
1997216N20091 1997 62 NI BB NOT_NAMED 1997-08-06 00:00:00 NR 23.5000 84.0000 newdelhi main 0 0 ____O_________ -1 23.5000 84.0000 DD 0.00000 5 292
1997216N20091 1997 62 NI BB NOT_NAMED 1997-08-06 03:00:00 NR 23.5000 83.8000 newdelhi main 0 0 ____O_________ -1 23.5000 83.8000 DD 0.00000 10 299
1997216N20091 1997 62 NI BB NOT_NAMED 1997-08-06 06:00:00 NR 24.0000 83.0000 newdelhi main 0 0 ____O_________ -1 24.0000 83.0000 DD 0.00000 13 293
1997216N20091 1997 62 NI BB NOT_NAMED 1997-08-06 09:00:00 NR 24.0000 82.5000 newdelhi main 0 0 ____O_________ -1 24.0000 82.5000 DD 0.00000 9 270
1997216N20091 1997 62 NI BB NOT_NAMED 1997-08-06 12:00:00 NR 24.0000 82.0000 newdelhi main 0 0 ____O_________ -1 24.0000 82.0000 DD 0.00000 8 270
1997216N20091 1997 62 NI BB NOT_NAMED 1997-08-06 15:00:00 NR 23.9998 81.6648 main 0 0 ____P_________ -1 23.9998 81.6648 DD 5 270
1997216N20091 1997 62 NI BB NOT_NAMED 1997-08-06 18:00:00 NR 24.0000 81.5000 newdelhi main 0 0 ____O_________ -1 24.0000 81.5000 DD 0.00000 5 130
1997216N20091 1997 62 NI BB NOT_NAMED 1997-08-06 21:00:00 NR 23.6863 82.0704 main 0 0 ____P_________ -1 23.6863 82.0704 DD 0 0
1997216N20091 1997 62 NI BB NOT_NAMED 1997-08-07 00:00:00 NR 24.0000 81.5000 newdelhi main 0 0 ____O_________ -1 24.0000 81.5000 DD 0.00000 37 299
1997216N20091 1997 62 NI BB NOT_NAMED 1997-08-07 03:00:00 NR 25.5000 78.5000 newdelhi main 0 0 ____O_________ -1 25.5000 78.5000 DD 0.00000 29 290
1997216N20091 1997 62 NI BB NOT_NAMED 1997-08-07 06:00:00 NR 25.0000 78.5000 newdelhi main 0 0 ____O_________ -1 25.0000 78.5000 D 0.00000 18 270
1997216N20091 1997 62 NI AS NOT_NAMED 1997-08-07 09:00:00 NR 25.5000 76.5000 newdelhi main 0 0 ____O_________ -1 25.5000 76.5000 D 0.00000 25 294
1997216N20091 1997 62 NI AS NOT_NAMED 1997-08-07 12:00:00 NR 26.0000 76.0000 newdelhi main 0 0 ____O_________ -1 26.0000 76.0000 D 0.00000 14 306
1997216N20091 1997 62 NI AS NOT_NAMED 1997-08-07 15:00:00 NR 26.3194 75.2298 main 0 0 ____P_________ -1 26.3194 75.2298 D 19 286
1997216N20091 1997 62 NI AS NOT_NAMED 1997-08-07 18:00:00 NR 26.5000 74.0000 newdelhi main 0 ____O_________ -1 26.5000 74.0000 D 0.00000 22 279

About IBTrACS Database

This database is a web-friendly format of International Best Track Archive for Climate Stewardship (IBTrACS), a global best track data archive curated by NOAA dating back to 1842.

Updated: 2021-11-26